sensor_id;sensor_type;location;lat;lon;timestamp;P1;durP1;ratioP1;P2;durP2;ratioP2
11004;SDS011;5555;59.622;16.556;2023-07-13T00:01:25;3.57;;;2.30;;
11004;SDS011;5555;59.622;16.556;2023-07-13T00:03:51;3.93;;;2.40;;
11004;SDS011;5555;59.622;16.556;2023-07-13T00:06:17;2.50;;;2.30;;
11004;SDS011;5555;59.622;16.556;2023-07-13T00:08:44;2.80;;;2.47;;
11004;SDS011;5555;59.622;16.556;2023-07-13T00:11:10;2.57;;;2.13;;
11004;SDS011;5555;59.622;16.556;2023-07-13T00:13:36;2.50;;;2.30;;
11004;SDS011;5555;59.622;16.556;2023-07-13T00:16:04;2.57;;;2.37;;
11004;SDS011;5555;59.622;16.556;2023-07-13T00:18:30;4.07;;;2.47;;
11004;SDS011;5555;59.622;16.556;2023-07-13T00:20:56;4.23;;;2.63;;
11004;SDS011;5555;59.622;16.556;2023-07-13T00:23:29;4.10;;;2.70;;
11004;SDS011;5555;59.622;16.556;2023-07-13T00:25:56;2.60;;;2.40;;
11004;SDS011;5555;59.622;16.556;2023-07-13T00:28:22;3.60;;;2.77;;
11004;SDS011;5555;59.622;16.556;2023-07-13T00:30:48;3.60;;;3.30;;
11004;SDS011;5555;59.622;16.556;2023-07-13T00:33:13;3.67;;;3.07;;
11004;SDS011;5555;59.622;16.556;2023-07-13T00:35:39;3.77;;;3.40;;
11004;SDS011;5555;59.622;16.556;2023-07-13T00:38:05;4.03;;;3.70;;
11004;SDS011;5555;59.622;16.556;2023-07-13T00:40:30;4.27;;;3.93;;
11004;SDS011;5555;59.622;16.556;2023-07-13T00:42:57;7.60;;;4.13;;
11004;SDS011;5555;59.622;16.556;2023-07-13T00:47:49;7.53;;;4.07;;
11004;SDS011;5555;59.622;16.556;2023-07-13T00:50:15;4.30;;;3.90;;
11004;SDS011;5555;59.622;16.556;2023-07-13T00:52:44;6.83;;;4.03;;
11004;SDS011;5555;59.622;16.556;2023-07-13T00:55:12;4.90;;;3.77;;
11004;SDS011;5555;59.622;16.556;2023-07-13T00:57:39;4.80;;;4.17;;
11004;SDS011;5555;59.622;16.556;2023-07-13T01:00:06;8.73;;;5.00;;
11004;SDS011;5555;59.622;16.556;2023-07-13T01:02:34;5.93;;;3.90;;
11004;SDS011;5555;59.622;16.556;2023-07-13T01:05:08;6.90;;;4.33;;
11004;SDS011;5555;59.622;16.556;2023-07-13T01:07:35;6.33;;;4.57;;
11004;SDS011;5555;59.622;16.556;2023-07-13T01:10:01;10.30;;;5.17;;
11004;SDS011;5555;59.622;16.556;2023-07-13T01:12:28;6.47;;;4.83;;
11004;SDS011;5555;59.622;16.556;2023-07-13T01:14:59;9.33;;;5.53;;
11004;SDS011;5555;59.622;16.556;2023-07-13T01:17:25;8.70;;;6.20;;
11004;SDS011;5555;59.622;16.556;2023-07-13T01:19:53;6.20;;;5.60;;
11004;SDS011;5555;59.622;16.556;2023-07-13T01:22:18;7.50;;;6.03;;
11004;SDS011;5555;59.622;16.556;2023-07-13T01:24:50;8.57;;;5.70;;
11004;SDS011;5555;59.622;16.556;2023-07-13T01:27:17;7.20;;;6.10;;
11004;SDS011;5555;59.622;16.556;2023-07-13T01:29:46;7.90;;;6.63;;
11004;SDS011;5555;59.622;16.556;2023-07-13T01:32:16;10.70;;;7.30;;
11004;SDS011;5555;59.622;16.556;2023-07-13T01:34:49;7.10;;;5.93;;
11004;SDS011;5555;59.622;16.556;2023-07-13T01:37:16;8.97;;;6.70;;
11004;SDS011;5555;59.622;16.556;2023-07-13T01:39:42;9.50;;;6.87;;
11004;SDS011;5555;59.622;16.556;2023-07-13T01:42:07;6.80;;;6.20;;
11004;SDS011;5555;59.622;16.556;2023-07-13T01:44:33;8.43;;;6.37;;
11004;SDS011;5555;59.622;16.556;2023-07-13T01:46:59;8.27;;;6.30;;
11004;SDS011;5555;59.622;16.556;2023-07-13T01:49:25;7.03;;;6.10;;
11004;SDS011;5555;59.622;16.556;2023-07-13T01:51:50;8.07;;;5.90;;
11004;SDS011;5555;59.622;16.556;2023-07-13T01:54:16;8.97;;;6.03;;
11004;SDS011;5555;59.622;16.556;2023-07-13T01:56:42;7.73;;;5.83;;
11004;SDS011;5555;59.622;16.556;2023-07-13T01:59:08;10.27;;;5.60;;
11004;SDS011;5555;59.622;16.556;2023-07-13T02:01:34;8.33;;;6.03;;
11004;SDS011;5555;59.622;16.556;2023-07-13T02:03:59;6.07;;;5.20;;
11004;SDS011;5555;59.622;16.556;2023-07-13T02:06:25;8.17;;;5.80;;
11004;SDS011;5555;59.622;16.556;2023-07-13T02:08:51;8.40;;;5.53;;
11004;SDS011;5555;59.622;16.556;2023-07-13T02:11:16;8.10;;;5.23;;
11004;SDS011;5555;59.622;16.556;2023-07-13T02:13:42;6.93;;;5.50;;
11004;SDS011;5555;59.622;16.556;2023-07-13T02:16:08;8.40;;;5.13;;
11004;SDS011;5555;59.622;16.556;2023-07-13T02:18:34;6.20;;;4.00;;
11004;SDS011;5555;59.622;16.556;2023-07-13T02:20:59;7.57;;;4.80;;
11004;SDS011;5555;59.622;16.556;2023-07-13T02:23:25;7.40;;;4.70;;
11004;SDS011;5555;59.622;16.556;2023-07-13T02:25:57;9.37;;;5.23;;
11004;SDS011;5555;59.622;16.556;2023-07-13T02:28:23;7.33;;;4.80;;
11004;SDS011;5555;59.622;16.556;2023-07-13T02:30:49;9.03;;;4.67;;
11004;SDS011;5555;59.622;16.556;2023-07-13T02:33:15;6.77;;;4.30;;
11004;SDS011;5555;59.622;16.556;2023-07-13T02:35:40;5.13;;;4.07;;
11004;SDS011;5555;59.622;16.556;2023-07-13T02:38:06;5.73;;;4.40;;
11004;SDS011;5555;59.622;16.556;2023-07-13T02:40:32;7.23;;;3.63;;
11004;SDS011;5555;59.622;16.556;2023-07-13T02:42:58;6.27;;;3.97;;
11004;SDS011;5555;59.622;16.556;2023-07-13T02:45:24;6.63;;;3.70;;
11004;SDS011;5555;59.622;16.556;2023-07-13T02:47:50;5.30;;;3.53;;
11004;SDS011;5555;59.622;16.556;2023-07-13T02:50:16;5.90;;;3.80;;
11004;SDS011;5555;59.622;16.556;2023-07-13T02:52:42;4.53;;;3.40;;
11004;SDS011;5555;59.622;16.556;2023-07-13T02:55:08;5.90;;;3.70;;
11004;SDS011;5555;59.622;16.556;2023-07-13T02:57:34;4.13;;;3.20;;
11004;SDS011;5555;59.622;16.556;2023-07-13T03:00:00;6.20;;;3.60;;
11004;SDS011;5555;59.622;16.556;2023-07-13T03:02:30;5.97;;;3.77;;
11004;SDS011;5555;59.622;16.556;2023-07-13T03:04:57;8.27;;;3.90;;
11004;SDS011;5555;59.622;16.556;2023-07-13T03:07:23;5.40;;;4.00;;
11004;SDS011;5555;59.622;16.556;2023-07-13T03:09:53;5.20;;;3.40;;
11004;SDS011;5555;59.622;16.556;2023-07-13T03:12:20;6.07;;;4.37;;
11004;SDS011;5555;59.622;16.556;2023-07-13T03:14:46;5.17;;;3.77;;
11004;SDS011;5555;59.622;16.556;2023-07-13T03:17:11;7.63;;;4.17;;
11004;SDS011;5555;59.622;16.556;2023-07-13T03:19:37;5.77;;;3.70;;
11004;SDS011;5555;59.622;16.556;2023-07-13T03:22:03;8.10;;;3.40;;
11004;SDS011;5555;59.622;16.556;2023-07-13T03:24:28;7.00;;;3.40;;
11004;SDS011;5555;59.622;16.556;2023-07-13T03:26:54;6.10;;;3.80;;
11004;SDS011;5555;59.622;16.556;2023-07-13T03:29:20;6.43;;;3.83;;
11004;SDS011;5555;59.622;16.556;2023-07-13T03:31:46;9.57;;;4.03;;
11004;SDS011;5555;59.622;16.556;2023-07-13T03:34:11;4.83;;;3.90;;
11004;SDS011;5555;59.622;16.556;2023-07-13T03:36:37;7.90;;;4.13;;
11004;SDS011;5555;59.622;16.556;2023-07-13T03:39:03;7.27;;;3.93;;
11004;SDS011;5555;59.622;16.556;2023-07-13T03:41:29;5.63;;;3.53;;
11004;SDS011;5555;59.622;16.556;2023-07-13T03:43:56;6.33;;;3.30;;
11004;SDS011;5555;59.622;16.556;2023-07-13T03:46:22;7.07;;;3.60;;
11004;SDS011;5555;59.622;16.556;2023-07-13T03:48:47;7.30;;;3.80;;
11004;SDS011;5555;59.622;16.556;2023-07-13T03:51:14;7.47;;;3.57;;
11004;SDS011;5555;59.622;16.556;2023-07-13T03:53:42;6.87;;;3.80;;
11004;SDS011;5555;59.622;16.556;2023-07-13T03:56:09;5.03;;;3.00;;
11004;SDS011;5555;59.622;16.556;2023-07-13T03:58:36;6.30;;;3.50;;
11004;SDS011;5555;59.622;16.556;2023-07-13T04:01:05;4.80;;;3.07;;
11004;SDS011;5555;59.622;16.556;2023-07-13T04:03:32;4.60;;;3.00;;
11004;SDS011;5555;59.622;16.556;2023-07-13T04:06:02;5.47;;;3.37;;
11004;SDS011;5555;59.622;16.556;2023-07-13T04:08:30;7.87;;;3.67;;
11004;SDS011;5555;59.622;16.556;2023-07-13T04:10:58;8.57;;;3.00;;
11004;SDS011;5555;59.622;16.556;2023-07-13T04:13:24;7.77;;;3.00;;
11004;SDS011;5555;59.622;16.556;2023-07-13T04:15:50;4.93;;;2.90;;
11004;SDS011;5555;59.622;16.556;2023-07-13T04:18:17;5.50;;;2.50;;
11004;SDS011;5555;59.622;16.556;2023-07-13T04:20:44;4.80;;;3.00;;
11004;SDS011;5555;59.622;16.556;2023-07-13T04:23:10;6.43;;;2.70;;
11004;SDS011;5555;59.622;16.556;2023-07-13T04:25:36;5.63;;;2.57;;
11004;SDS011;5555;59.622;16.556;2023-07-13T04:28:02;5.50;;;2.50;;
11004;SDS011;5555;59.622;16.556;2023-07-13T04:30:29;4.13;;;2.57;;
11004;SDS011;5555;59.622;16.556;2023-07-13T04:32:54;7.43;;;3.07;;
11004;SDS011;5555;59.622;16.556;2023-07-13T04:35:20;9.47;;;2.87;;
11004;SDS011;5555;59.622;16.556;2023-07-13T04:37:46;8.30;;;2.40;;
11004;SDS011;5555;59.622;16.556;2023-07-13T04:40:18;7.60;;;2.50;;
11004;SDS011;5555;59.622;16.556;2023-07-13T04:42:45;5.90;;;2.67;;
11004;SDS011;5555;59.622;16.556;2023-07-13T04:45:12;6.03;;;2.20;;
11004;SDS011;5555;59.622;16.556;2023-07-13T04:47:38;7.53;;;2.40;;
11004;SDS011;5555;59.622;16.556;2023-07-13T04:50:04;8.10;;;2.40;;
11004;SDS011;5555;59.622;16.556;2023-07-13T04:52:30;3.57;;;2.13;;
11004;SDS011;5555;59.622;16.556;2023-07-13T04:54:56;4.80;;;2.10;;
11004;SDS011;5555;59.622;16.556;2023-07-13T04:57:22;6.60;;;2.30;;
11004;SDS011;5555;59.622;16.556;2023-07-13T04:59:48;6.70;;;2.20;;
11004;SDS011;5555;59.622;16.556;2023-07-13T05:02:13;6.90;;;2.17;;
11004;SDS011;5555;59.622;16.556;2023-07-13T05:04:39;4.63;;;2.07;;
11004;SDS011;5555;59.622;16.556;2023-07-13T05:07:05;7.37;;;2.73;;
11004;SDS011;5555;59.622;16.556;2023-07-13T05:09:31;5.53;;;2.03;;
11004;SDS011;5555;59.622;16.556;2023-07-13T05:11:57;5.03;;;1.97;;
11004;SDS011;5555;59.622;16.556;2023-07-13T05:14:22;7.53;;;2.33;;
11004;SDS011;5555;59.622;16.556;2023-07-13T05:16:48;5.50;;;2.27;;
11004;SDS011;5555;59.622;16.556;2023-07-13T05:19:13;5.07;;;1.83;;
11004;SDS011;5555;59.622;16.556;2023-07-13T05:21:39;7.07;;;1.97;;
11004;SDS011;5555;59.622;16.556;2023-07-13T05:24:06;6.17;;;2.20;;
11004;SDS011;5555;59.622;16.556;2023-07-13T05:26:31;6.17;;;2.17;;
11004;SDS011;5555;59.622;16.556;2023-07-13T05:28:57;5.13;;;1.90;;
11004;SDS011;5555;59.622;16.556;2023-07-13T05:31:22;6.73;;;2.17;;
11004;SDS011;5555;59.622;16.556;2023-07-13T05:33:48;6.23;;;1.80;;
11004;SDS011;5555;59.622;16.556;2023-07-13T05:36:14;5.60;;;1.83;;
11004;SDS011;5555;59.622;16.556;2023-07-13T05:38:39;4.17;;;2.10;;
11004;SDS011;5555;59.622;16.556;2023-07-13T05:41:05;5.63;;;2.20;;
11004;SDS011;5555;59.622;16.556;2023-07-13T05:43:31;5.57;;;1.90;;
11004;SDS011;5555;59.622;16.556;2023-07-13T05:45:56;4.93;;;1.80;;
11004;SDS011;5555;59.622;16.556;2023-07-13T05:48:22;6.17;;;2.30;;
11004;SDS011;5555;59.622;16.556;2023-07-13T05:50:48;5.47;;;2.00;;
11004;SDS011;5555;59.622;16.556;2023-07-13T05:53:14;5.53;;;1.90;;
11004;SDS011;5555;59.622;16.556;2023-07-13T05:55:40;5.63;;;2.00;;
11004;SDS011;5555;59.622;16.556;2023-07-13T05:58:12;3.63;;;1.73;;
11004;SDS011;5555;59.622;16.556;2023-07-13T06:00:38;6.10;;;2.10;;
11004;SDS011;5555;59.622;16.556;2023-07-13T06:03:05;3.70;;;1.80;;
11004;SDS011;5555;59.622;16.556;2023-07-13T06:05:31;5.53;;;1.87;;
11004;SDS011;5555;59.622;16.556;2023-07-13T06:07:58;6.37;;;1.97;;
11004;SDS011;5555;59.622;16.556;2023-07-13T06:10:24;5.37;;;1.97;;
11004;SDS011;5555;59.622;16.556;2023-07-13T06:12:50;5.57;;;2.00;;
11004;SDS011;5555;59.622;16.556;2023-07-13T06:15:15;3.57;;;2.10;;
11004;SDS011;5555;59.622;16.556;2023-07-13T06:17:41;4.23;;;2.10;;
11004;SDS011;5555;59.622;16.556;2023-07-13T06:20:07;7.53;;;2.67;;
11004;SDS011;5555;59.622;16.556;2023-07-13T06:22:33;4.00;;;1.90;;
11004;SDS011;5555;59.622;16.556;2023-07-13T06:24:58;6.77;;;2.33;;
11004;SDS011;5555;59.622;16.556;2023-07-13T06:27:24;8.13;;;2.33;;
11004;SDS011;5555;59.622;16.556;2023-07-13T06:29:50;6.40;;;2.20;;
11004;SDS011;5555;59.622;16.556;2023-07-13T06:32:15;6.73;;;1.97;;
11004;SDS011;5555;59.622;16.556;2023-07-13T06:34:41;6.67;;;1.87;;
11004;SDS011;5555;59.622;16.556;2023-07-13T06:37:07;6.97;;;1.87;;
11004;SDS011;5555;59.622;16.556;2023-07-13T06:39:33;5.60;;;2.03;;
11004;SDS011;5555;59.622;16.556;2023-07-13T06:41:59;6.83;;;2.37;;
11004;SDS011;5555;59.622;16.556;2023-07-13T06:44:25;7.27;;;2.20;;
11004;SDS011;5555;59.622;16.556;2023-07-13T06:46:50;4.00;;;1.80;;
11004;SDS011;5555;59.622;16.556;2023-07-13T06:49:16;4.33;;;1.80;;
11004;SDS011;5555;59.622;16.556;2023-07-13T06:51:41;5.57;;;1.90;;
11004;SDS011;5555;59.622;16.556;2023-07-13T06:54:07;5.57;;;2.10;;
11004;SDS011;5555;59.622;16.556;2023-07-13T06:56:33;5.70;;;2.07;;
11004;SDS011;5555;59.622;16.556;2023-07-13T06:58:59;5.63;;;1.90;;
11004;SDS011;5555;59.622;16.556;2023-07-13T07:01:25;5.63;;;1.73;;
11004;SDS011;5555;59.622;16.556;2023-07-13T07:03:50;5.50;;;2.10;;
11004;SDS011;5555;59.622;16.556;2023-07-13T07:06:17;6.50;;;1.80;;
11004;SDS011;5555;59.622;16.556;2023-07-13T07:08:44;6.47;;;2.00;;
11004;SDS011;5555;59.622;16.556;2023-07-13T07:11:14;7.17;;;2.33;;
11004;SDS011;5555;59.622;16.556;2023-07-13T07:13:44;5.37;;;1.80;;
11004;SDS011;5555;59.622;16.556;2023-07-13T07:16:10;4.97;;;1.90;;
11004;SDS011;5555;59.622;16.556;2023-07-13T07:18:35;5.33;;;2.23;;
11004;SDS011;5555;59.622;16.556;2023-07-13T07:21:01;4.27;;;1.67;;
11004;SDS011;5555;59.622;16.556;2023-07-13T07:23:27;6.73;;;2.10;;
11004;SDS011;5555;59.622;16.556;2023-07-13T07:25:52;6.77;;;1.90;;
11004;SDS011;5555;59.622;16.556;2023-07-13T07:28:18;4.80;;;1.73;;
11004;SDS011;5555;59.622;16.556;2023-07-13T07:30:44;4.13;;;1.57;;
11004;SDS011;5555;59.622;16.556;2023-07-13T07:33:11;5.47;;;1.93;;
11004;SDS011;5555;59.622;16.556;2023-07-13T07:35:36;3.87;;;1.60;;
11004;SDS011;5555;59.622;16.556;2023-07-13T07:38:05;5.57;;;1.80;;
11004;SDS011;5555;59.622;16.556;2023-07-13T07:40:31;5.13;;;1.77;;
11004;SDS011;5555;59.622;16.556;2023-07-13T07:42:57;5.30;;;2.07;;
11004;SDS011;5555;59.622;16.556;2023-07-13T07:45:22;5.50;;;1.63;;
11004;SDS011;5555;59.622;16.556;2023-07-13T07:47:48;5.00;;;1.60;;
11004;SDS011;5555;59.622;16.556;2023-07-13T07:50:14;6.57;;;1.63;;
11004;SDS011;5555;59.622;16.556;2023-07-13T07:52:40;6.90;;;1.93;;
11004;SDS011;5555;59.622;16.556;2023-07-13T07:55:06;8.03;;;1.67;;
11004;SDS011;5555;59.622;16.556;2023-07-13T07:57:32;4.77;;;1.70;;
11004;SDS011;5555;59.622;16.556;2023-07-13T07:59:59;6.13;;;2.07;;
11004;SDS011;5555;59.622;16.556;2023-07-13T08:02:25;4.67;;;1.57;;
11004;SDS011;5555;59.622;16.556;2023-07-13T08:04:51;5.63;;;1.77;;
11004;SDS011;5555;59.622;16.556;2023-07-13T08:07:17;4.43;;;1.60;;
11004;SDS011;5555;59.622;16.556;2023-07-13T08:09:43;4.77;;;1.70;;
11004;SDS011;5555;59.622;16.556;2023-07-13T08:12:09;7.30;;;2.00;;
11004;SDS011;5555;59.622;16.556;2023-07-13T08:14:35;3.40;;;1.23;;
11004;SDS011;5555;59.622;16.556;2023-07-13T08:17:00;4.87;;;1.63;;
11004;SDS011;5555;59.622;16.556;2023-07-13T08:19:26;3.80;;;1.47;;
11004;SDS011;5555;59.622;16.556;2023-07-13T08:21:51;4.40;;;1.57;;
11004;SDS011;5555;59.622;16.556;2023-07-13T08:24:17;5.50;;;1.60;;
11004;SDS011;5555;59.622;16.556;2023-07-13T08:26:43;5.60;;;1.70;;
11004;SDS011;5555;59.622;16.556;2023-07-13T08:29:11;4.00;;;1.67;;
11004;SDS011;5555;59.622;16.556;2023-07-13T08:31:36;5.30;;;1.63;;
11004;SDS011;5555;59.622;16.556;2023-07-13T08:34:02;4.87;;;1.50;;
11004;SDS011;5555;59.622;16.556;2023-07-13T08:36:28;4.60;;;1.57;;
11004;SDS011;5555;59.622;16.556;2023-07-13T08:38:54;4.97;;;1.67;;
11004;SDS011;5555;59.622;16.556;2023-07-13T08:41:20;5.60;;;1.70;;
11004;SDS011;5555;59.622;16.556;2023-07-13T08:43:51;5.10;;;1.40;;
11004;SDS011;5555;59.622;16.556;2023-07-13T08:46:24;7.03;;;1.57;;
11004;SDS011;5555;59.622;16.556;2023-07-13T08:48:59;4.63;;;1.60;;
11004;SDS011;5555;59.622;16.556;2023-07-13T08:54:21;3.80;;;1.40;;
11004;SDS011;5555;59.622;16.556;2023-07-13T08:56:47;4.83;;;1.50;;
11004;SDS011;5555;59.622;16.556;2023-07-13T08:59:18;7.60;;;1.63;;
11004;SDS011;5555;59.622;16.556;2023-07-13T09:01:54;5.97;;;1.80;;
11004;SDS011;5555;59.622;16.556;2023-07-13T09:10:12;3.53;;;1.47;;
11004;SDS011;5555;59.622;16.556;2023-07-13T09:12:51;4.47;;;1.27;;
11004;SDS011;5555;59.622;16.556;2023-07-13T09:15:24;1.87;;;1.10;;
11004;SDS011;5555;59.622;16.556;2023-07-13T09:17:55;4.77;;;1.70;;
11004;SDS011;5555;59.622;16.556;2023-07-13T09:20:32;3.40;;;1.40;;
11004;SDS011;5555;59.622;16.556;2023-07-13T09:22:59;4.93;;;1.37;;
11004;SDS011;5555;59.622;16.556;2023-07-13T09:25:30;3.87;;;1.77;;
11004;SDS011;5555;59.622;16.556;2023-07-13T09:30:54;4.77;;;1.33;;
11004;SDS011;5555;59.622;16.556;2023-07-13T09:33:30;7.00;;;1.40;;
11004;SDS011;5555;59.622;16.556;2023-07-13T09:35:56;5.30;;;1.60;;
11004;SDS011;5555;59.622;16.556;2023-07-13T09:38:24;3.43;;;1.13;;
11004;SDS011;5555;59.622;16.556;2023-07-13T09:40:59;3.77;;;1.20;;
11004;SDS011;5555;59.622;16.556;2023-07-13T09:43:25;4.13;;;1.40;;
11004;SDS011;5555;59.622;16.556;2023-07-13T09:45:51;3.13;;;1.13;;
11004;SDS011;5555;59.622;16.556;2023-07-13T09:48:17;4.17;;;1.57;;
11004;SDS011;5555;59.622;16.556;2023-07-13T09:50:43;4.57;;;1.40;;
11004;SDS011;5555;59.622;16.556;2023-07-13T09:53:13;2.67;;;1.23;;
11004;SDS011;5555;59.622;16.556;2023-07-13T09:55:42;3.90;;;1.33;;
11004;SDS011;5555;59.622;16.556;2023-07-13T09:58:16;2.77;;;1.20;;
11004;SDS011;5555;59.622;16.556;2023-07-13T10:00:43;4.73;;;1.40;;
11004;SDS011;5555;59.622;16.556;2023-07-13T10:03:19;5.00;;;1.60;;
11004;SDS011;5555;59.622;16.556;2023-07-13T10:05:47;5.50;;;1.23;;
11004;SDS011;5555;59.622;16.556;2023-07-13T10:10:53;3.90;;;1.10;;
11004;SDS011;5555;59.622;16.556;2023-07-13T10:13:26;2.77;;;1.10;;
11004;SDS011;5555;59.622;16.556;2023-07-13T10:16:02;2.00;;;0.87;;
11004;SDS011;5555;59.622;16.556;2023-07-13T10:18:31;4.87;;;1.33;;
11004;SDS011;5555;59.622;16.556;2023-07-13T10:21:13;2.10;;;1.00;;
11004;SDS011;5555;59.622;16.556;2023-07-13T10:23:41;3.17;;;1.30;;
11004;SDS011;5555;59.622;16.556;2023-07-13T10:26:09;2.47;;;0.93;;
11004;SDS011;5555;59.622;16.556;2023-07-13T10:28:40;4.83;;;1.30;;
11004;SDS011;5555;59.622;16.556;2023-07-13T10:31:10;3.03;;;1.10;;
11004;SDS011;5555;59.622;16.556;2023-07-13T10:33:38;1.23;;;0.60;;
11004;SDS011;5555;59.622;16.556;2023-07-13T10:38:41;2.83;;;1.10;;
11004;SDS011;5555;59.622;16.556;2023-07-13T10:41:15;4.80;;;1.27;;
11004;SDS011;5555;59.622;16.556;2023-07-13T10:43:52;4.00;;;1.20;;
11004;SDS011;5555;59.622;16.556;2023-07-13T10:46:20;6.60;;;1.10;;
11004;SDS011;5555;59.622;16.556;2023-07-13T10:48:49;3.20;;;0.83;;
11004;SDS011;5555;59.622;16.556;2023-07-13T10:51:19;2.30;;;0.83;;
11004;SDS011;5555;59.622;16.556;2023-07-13T10:53:48;2.73;;;0.80;;
11004;SDS011;5555;59.622;16.556;2023-07-13T10:56:33;2.83;;;1.40;;
11004;SDS011;5555;59.622;16.556;2023-07-13T10:59:46;3.80;;;1.60;;
11004;SDS011;5555;59.622;16.556;2023-07-13T11:02:00;4.93;;;1.20;;
11004;SDS011;5555;59.622;16.556;2023-07-13T11:04:40;3.43;;;0.97;;
11004;SDS011;5555;59.622;16.556;2023-07-13T11:07:19;3.10;;;1.20;;
11004;SDS011;5555;59.622;16.556;2023-07-13T11:10:04;2.60;;;0.90;;
11004;SDS011;5555;59.622;16.556;2023-07-13T11:12:50;2.83;;;1.20;;
11004;SDS011;5555;59.622;16.556;2023-07-13T11:15:43;4.17;;;1.10;;
11004;SDS011;5555;59.622;16.556;2023-07-13T11:18:20;3.03;;;1.10;;
11004;SDS011;5555;59.622;16.556;2023-07-13T11:20:48;2.23;;;1.03;;
11004;SDS011;5555;59.622;16.556;2023-07-13T11:25:43;3.47;;;1.00;;
11004;SDS011;5555;59.622;16.556;2023-07-13T11:30:39;2.43;;;1.20;;
11004;SDS011;5555;59.622;16.556;2023-07-13T11:38:23;3.73;;;1.17;;
11004;SDS011;5555;59.622;16.556;2023-07-13T11:41:05;3.13;;;1.13;;
11004;SDS011;5555;59.622;16.556;2023-07-13T11:43:38;3.40;;;0.87;;
11004;SDS011;5555;59.622;16.556;2023-07-13T11:49:04;1.83;;;1.07;;
11004;SDS011;5555;59.622;16.556;2023-07-13T11:51:34;1.93;;;0.80;;
11004;SDS011;5555;59.622;16.556;2023-07-13T11:54:05;3.87;;;0.80;;
11004;SDS011;5555;59.622;16.556;2023-07-13T11:56:47;4.73;;;1.00;;
11004;SDS011;5555;59.622;16.556;2023-07-13T11:59:14;1.83;;;0.80;;
11004;SDS011;5555;59.622;16.556;2023-07-13T12:01:49;4.97;;;1.50;;
11004;SDS011;5555;59.622;16.556;2023-07-13T12:04:22;2.93;;;1.00;;
11004;SDS011;5555;59.622;16.556;2023-07-13T12:07:07;4.03;;;1.10;;
11004;SDS011;5555;59.622;16.556;2023-07-13T12:09:39;2.57;;;1.10;;
11004;SDS011;5555;59.622;16.556;2023-07-13T12:12:28;2.70;;;0.90;;
11004;SDS011;5555;59.622;16.556;2023-07-13T12:14:54;5.27;;;1.40;;
11004;SDS011;5555;59.622;16.556;2023-07-13T12:17:20;2.93;;;1.10;;
11004;SDS011;5555;59.622;16.556;2023-07-13T12:19:48;3.05;;;1.15;;
11004;SDS011;5555;59.622;16.556;2023-07-13T12:22:16;3.08;;;0.85;;
11004;SDS011;5555;59.622;16.556;2023-07-13T12:24:43;2.47;;;1.00;;
11004;SDS011;5555;59.622;16.556;2023-07-13T12:27:18;1.25;;;0.73;;
11004;SDS011;5555;59.622;16.556;2023-07-13T12:30:00;3.92;;;0.90;;
11004;SDS011;5555;59.622;16.556;2023-07-13T12:32:27;2.47;;;1.10;;
11004;SDS011;5555;59.622;16.556;2023-07-13T12:34:55;3.10;;;1.30;;
11004;SDS011;5555;59.622;16.556;2023-07-13T12:37:28;3.67;;;1.10;;
11004;SDS011;5555;59.622;16.556;2023-07-13T12:39:56;5.27;;;1.10;;
11004;SDS011;5555;59.622;16.556;2023-07-13T12:45:03;5.32;;;1.00;;
11004;SDS011;5555;59.622;16.556;2023-07-13T12:47:41;3.22;;;0.77;;
11004;SDS011;5555;59.622;16.556;2023-07-13T12:50:42;4.18;;;0.80;;
11004;SDS011;5555;59.622;16.556;2023-07-13T12:53:06;1.25;;;0.47;;
11004;SDS011;5555;59.622;16.556;2023-07-13T12:55:40;3.65;;;0.55;;
11004;SDS011;5555;59.622;16.556;2023-07-13T12:58:40;2.08;;;0.50;;
11004;SDS011;5555;59.622;16.556;2023-07-13T13:01:09;1.38;;;0.50;;
11004;SDS011;5555;59.622;16.556;2023-07-13T13:03:38;1.63;;;0.50;;
11004;SDS011;5555;59.622;16.556;2023-07-13T13:08:40;2.03;;;0.52;;
11004;SDS011;5555;59.622;16.556;2023-07-13T13:11:07;1.75;;;0.60;;
11004;SDS011;5555;59.622;16.556;2023-07-13T13:13:34;2.00;;;0.80;;
11004;SDS011;5555;59.622;16.556;2023-07-13T13:16:12;0.85;;;0.40;;
11004;SDS011;5555;59.622;16.556;2023-07-13T13:18:44;2.78;;;0.60;;
11004;SDS011;5555;59.622;16.556;2023-07-13T13:21:10;1.33;;;0.63;;
11004;SDS011;5555;59.622;16.556;2023-07-13T13:23:36;2.08;;;0.70;;
11004;SDS011;5555;59.622;16.556;2023-07-13T13:26:02;1.67;;;0.52;;
11004;SDS011;5555;59.622;16.556;2023-07-13T13:28:28;1.98;;;0.70;;
11004;SDS011;5555;59.622;16.556;2023-07-13T13:30:54;1.48;;;0.70;;
11004;SDS011;5555;59.622;16.556;2023-07-13T13:33:20;1.35;;;0.52;;
11004;SDS011;5555;59.622;16.556;2023-07-13T13:35:46;3.63;;;0.80;;
11004;SDS011;5555;59.622;16.556;2023-07-13T13:38:16;1.48;;;0.70;;
11004;SDS011;5555;59.622;16.556;2023-07-13T13:40:44;1.83;;;0.73;;
11004;SDS011;5555;59.622;16.556;2023-07-13T13:43:24;3.13;;;1.10;;
11004;SDS011;5555;59.622;16.556;2023-07-13T13:45:57;2.05;;;0.60;;
11004;SDS011;5555;59.622;16.556;2023-07-13T13:48:31;1.95;;;0.60;;
11004;SDS011;5555;59.622;16.556;2023-07-13T13:50:59;1.38;;;0.60;;
11004;SDS011;5555;59.622;16.556;2023-07-13T13:53:28;1.15;;;0.50;;
11004;SDS011;5555;59.622;16.556;2023-07-13T13:55:54;2.20;;;0.57;;
11004;SDS011;5555;59.622;16.556;2023-07-13T13:58:20;1.40;;;0.47;;
11004;SDS011;5555;59.622;16.556;2023-07-13T14:00:45;2.45;;;0.70;;
11004;SDS011;5555;59.622;16.556;2023-07-13T14:03:22;2.75;;;0.80;;
11004;SDS011;5555;59.622;16.556;2023-07-13T14:05:49;1.65;;;0.77;;
11004;SDS011;5555;59.622;16.556;2023-07-13T14:08:16;1.90;;;0.90;;
11004;SDS011;5555;59.622;16.556;2023-07-13T14:10:46;1.17;;;0.50;;
11004;SDS011;5555;59.622;16.556;2023-07-13T14:13:16;1.13;;;0.40;;
11004;SDS011;5555;59.622;16.556;2023-07-13T14:15:45;3.03;;;0.60;;
11004;SDS011;5555;59.622;16.556;2023-07-13T14:18:10;0.90;;;0.60;;
11004;SDS011;5555;59.622;16.556;2023-07-13T14:20:36;1.33;;;0.70;;
11004;SDS011;5555;59.622;16.556;2023-07-13T14:23:03;0.60;;;0.32;;
11004;SDS011;5555;59.622;16.556;2023-07-13T14:25:28;1.63;;;0.65;;
11004;SDS011;5555;59.622;16.556;2023-07-13T14:27:58;1.48;;;0.63;;
11004;SDS011;5555;59.622;16.556;2023-07-13T14:30:25;2.88;;;0.85;;
11004;SDS011;5555;59.622;16.556;2023-07-13T14:32:51;1.10;;;0.57;;
11004;SDS011;5555;59.622;16.556;2023-07-13T14:35:21;1.98;;;0.60;;
11004;SDS011;5555;59.622;16.556;2023-07-13T14:37:48;1.45;;;0.47;;
11004;SDS011;5555;59.622;16.556;2023-07-13T14:40:15;2.13;;;0.60;;
11004;SDS011;5555;59.622;16.556;2023-07-13T14:42:43;1.15;;;0.60;;
11004;SDS011;5555;59.622;16.556;2023-07-13T14:45:12;1.27;;;0.40;;
11004;SDS011;5555;59.622;16.556;2023-07-13T14:47:40;2.00;;;0.68;;
11004;SDS011;5555;59.622;16.556;2023-07-13T14:50:11;1.70;;;0.63;;
11004;SDS011;5555;59.622;16.556;2023-07-13T14:52:39;2.33;;;0.73;;
11004;SDS011;5555;59.622;16.556;2023-07-13T14:55:09;0.73;;;0.32;;
11004;SDS011;5555;59.622;16.556;2023-07-13T14:57:40;1.27;;;0.73;;
11004;SDS011;5555;59.622;16.556;2023-07-13T15:00:15;0.95;;;0.43;;
11004;SDS011;5555;59.622;16.556;2023-07-13T15:02:47;0.68;;;0.40;;
11004;SDS011;5555;59.622;16.556;2023-07-13T15:05:25;1.25;;;0.68;;
11004;SDS011;5555;59.622;16.556;2023-07-13T15:07:56;1.38;;;0.50;;
11004;SDS011;5555;59.622;16.556;2023-07-13T15:10:28;1.17;;;0.52;;
11004;SDS011;5555;59.622;16.556;2023-07-13T15:13:19;1.73;;;0.47;;
11004;SDS011;5555;59.622;16.556;2023-07-13T15:15:52;2.15;;;0.60;;
11004;SDS011;5555;59.622;16.556;2023-07-13T15:18:19;1.30;;;0.45;;
11004;SDS011;5555;59.622;16.556;2023-07-13T15:20:47;1.98;;;0.70;;
11004;SDS011;5555;59.622;16.556;2023-07-13T15:23:15;5.10;;;0.70;;
11004;SDS011;5555;59.622;16.556;2023-07-13T15:25:42;1.55;;;0.70;;
11004;SDS011;5555;59.622;16.556;2023-07-13T15:28:08;1.45;;;0.45;;
11004;SDS011;5555;59.622;16.556;2023-07-13T15:30:45;1.58;;;0.57;;
11004;SDS011;5555;59.622;16.556;2023-07-13T15:33:14;1.77;;;0.50;;